Time;durP1;ratioP1;P1;durP2;ratioP2;P2;SDS_P1;SDS_P2;PMS_P1;PMS_P2;Temp;Humidity;BMP_temperature;BMP_pressure;BME280_temperature;BME280_humidity;BME280_pressure;Samples;Min_cycle;Max_cycle;Signal;HPM_P1;HPM_P2
2023/09/29 00:01:24;;;;;;;22.67;15.80;;;17.20;99.90;;;;;;5221675;28;20202;-50
2023/09/29 00:03:55;;;;;;;19.80;14.90;;;17.20;99.90;;;;;;5227794;28;20240;-50
2023/09/29 00:06:26;;;;;;;20.53;13.80;;;17.20;99.90;;;;;;5226515;28;20425;-49
2023/09/29 00:08:56;;;;;;;23.93;14.77;;;17.20;99.90;;;;;;5224248;28;20559;-49
2023/09/29 00:11:30;;;;;;;20.20;14.03;;;17.20;99.90;;;;;;5222356;28;20190;-49
2023/09/29 00:14:01;;;;;;;22.77;15.07;;;17.20;99.90;;;;;;5220260;28;20712;-51
2023/09/29 00:16:32;;;;;;;23.87;15.77;;;17.20;99.90;;;;;;5223527;28;20421;-50
2023/09/29 00:19:02;;;;;;;26.13;16.60;;;17.20;99.90;;;;;;5221813;28;20227;-51
2023/09/29 00:21:33;;;;;;;26.47;15.93;;;17.20;99.90;;;;;;5220754;28;20549;-50
2023/09/29 00:24:04;;;;;;;24.07;15.47;;;17.10;99.90;;;;;;5205476;28;20206;-50
2023/09/29 00:26:35;;;;;;;23.97;15.00;;;17.10;99.90;;;;;;5218301;28;20218;-51
2023/09/29 00:29:05;;;;;;;22.50;14.93;;;17.10;99.90;;;;;;5221786;28;20622;-50
2023/09/29 00:31:36;;;;;;;25.10;16.77;;;17.10;99.90;;;;;;5224285;28;20553;-50
2023/09/29 00:34:06;;;;;;;17.70;15.13;;;17.10;99.90;;;;;;5220958;28;20179;-50
2023/09/29 00:36:38;;;;;;;23.80;16.67;;;17.10;99.90;;;;;;5217707;28;20255;-50
2023/09/29 00:39:13;;;;;;;17.93;14.47;;;17.00;99.90;;;;;;5219856;28;20206;-50
2023/09/29 00:41:44;;;;;;;19.17;14.30;;;17.10;99.90;;;;;;5224003;28;20469;-51
2023/09/29 00:44:16;;;;;;;23.17;15.97;;;17.00;99.90;;;;;;5215692;28;20469;-50
2023/09/29 00:46:46;;;;;;;20.03;14.93;;;17.00;99.90;;;;;;5221749;28;20183;-50
2023/09/29 00:49:17;;;;;;;23.90;15.20;;;17.00;99.90;;;;;;5214689;28;20465;-50
2023/09/29 00:51:48;;;;;;;24.90;15.60;;;17.00;99.90;;;;;;5220868;28;20175;-51
2023/09/29 00:54:20;;;;;;;17.73;15.00;;;17.00;99.90;;;;;;5217555;28;20425;-50
2023/09/29 00:56:51;;;;;;;25.10;15.90;;;17.00;99.90;;;;;;5217777;28;20271;-50
2023/09/29 00:59:24;;;;;;;20.00;14.80;;;16.90;99.90;;;;;;5224878;28;20569;-51
2023/09/29 01:01:56;;;;;;;31.83;16.50;;;16.90;99.90;;;;;;5219858;28;20262;-51
2023/09/29 01:04:27;;;;;;;20.70;16.00;;;16.90;99.90;;;;;;5219514;28;20437;-51
2023/09/29 01:06:57;;;;;;;24.60;15.50;;;16.90;99.90;;;;;;5226724;28;20933;-51
2023/09/29 01:09:28;;;;;;;20.90;16.33;;;16.80;99.90;;;;;;5223152;28;20198;-51
2023/09/29 01:12:00;;;;;;;26.63;16.27;;;16.80;99.90;;;;;;5220288;28;20182;-49
2023/09/29 01:14:30;;;;;;;36.50;15.93;;;16.80;99.90;;;;;;5215960;28;20180;-51
2023/09/29 01:17:01;;;;;;;28.13;16.50;;;16.80;99.90;;;;;;5221541;28;20438;-50
2023/09/29 01:19:31;;;;;;;21.80;15.67;;;16.80;99.90;;;;;;5221267;28;20253;-51
2023/09/29 01:22:03;;;;;;;20.67;16.40;;;16.80;99.90;;;;;;5216847;28;20594;-50
2023/09/29 01:24:34;;;;;;;18.70;15.27;;;16.80;99.90;;;;;;5221341;28;20554;-50
2023/09/29 01:27:04;;;;;;;23.17;15.37;;;16.80;99.90;;;;;;5221423;28;20430;-50
2023/09/29 01:29:35;;;;;;;19.00;15.40;;;16.70;99.90;;;;;;5219974;28;20206;-50
2023/09/29 01:32:05;;;;;;;25.70;15.80;;;16.70;99.90;;;;;;5219007;28;20179;-50
2023/09/29 01:34:36;;;;;;;22.27;14.50;;;16.70;99.90;;;;;;5223963;28;20198;-50
2023/09/29 01:37:08;;;;;;;22.80;14.63;;;16.70;99.90;;;;;;5223891;28;20653;-49
2023/09/29 01:39:38;;;;;;;18.70;14.07;;;16.70;99.90;;;;;;5215946;28;20289;-49
2023/09/29 01:42:09;;;;;;;17.73;14.63;;;16.70;99.90;;;;;;5219331;28;20508;-50
2023/09/29 01:44:39;;;;;;;18.40;14.80;;;16.70;99.90;;;;;;5216934;28;20719;-49
2023/09/29 01:47:10;;;;;;;17.23;13.93;;;16.70;99.90;;;;;;5221293;28;20194;-49
2023/09/29 01:49:41;;;;;;;15.87;13.77;;;16.70;99.90;;;;;;5222520;28;20217;-50
2023/09/29 01:52:11;;;;;;;20.97;15.40;;;16.70;99.90;;;;;;5202848;28;20627;-51
2023/09/29 01:54:42;;;;;;;24.60;16.13;;;16.70;99.90;;;;;;5206148;28;20226;-51
2023/09/29 01:57:12;;;;;;;23.17;15.50;;;16.60;99.90;;;;;;5224418;28;20254;-51
2023/09/29 01:59:43;;;;;;;21.67;14.67;;;16.60;99.90;;;;;;5223835;28;20233;-51
2023/09/29 02:02:13;;;;;;;19.43;14.80;;;16.60;99.90;;;;;;5223164;28;20182;-50
2023/09/29 02:04:44;;;;;;;17.27;14.00;;;16.60;99.90;;;;;;5224606;28;20191;-50
2023/09/29 02:07:15;;;;;;;20.53;14.03;;;16.60;99.90;;;;;;5229516;28;20198;-50
2023/09/29 02:09:46;;;;;;;18.00;13.37;;;16.60;99.90;;;;;;5227805;28;20210;-51
2023/09/29 02:12:17;;;;;;;21.97;15.37;;;16.50;99.90;;;;;;5226497;28;20174;-50
2023/09/29 02:14:48;;;;;;;20.50;13.37;;;16.50;99.90;;;;;;5227327;28;20425;-50
2023/09/29 02:17:19;;;;;;;15.50;13.00;;;16.50;99.90;;;;;;5227413;28;20544;-51
2023/09/29 02:19:52;;;;;;;20.23;15.23;;;16.50;99.90;;;;;;5231150;28;20267;-50
2023/09/29 02:22:23;;;;;;;16.60;14.17;;;16.50;99.90;;;;;;5226683;28;20183;-51
2023/09/29 02:24:54;;;;;;;19.30;13.77;;;16.50;99.90;;;;;;5228257;28;20475;-51
2023/09/29 02:27:24;;;;;;;22.70;15.07;;;16.50;99.90;;;;;;5226036;28;20542;-50
2023/09/29 02:29:55;;;;;;;20.03;15.03;;;16.50;99.90;;;;;;5225987;28;20234;-50
2023/09/29 02:32:25;;;;;;;20.00;14.27;;;16.50;99.90;;;;;;5225147;28;20183;-52
2023/09/29 02:34:56;;;;;;;18.27;12.90;;;16.50;99.90;;;;;;5222881;28;20175;-49
2023/09/29 02:37:27;;;;;;;18.27;13.70;;;16.50;99.90;;;;;;5228897;28;20262;-50
2023/09/29 02:39:58;;;;;;;21.33;15.40;;;16.50;99.90;;;;;;5230068;28;20217;-50
2023/09/29 02:42:29;;;;;;;23.13;15.80;;;16.40;99.90;;;;;;5230326;28;20193;-50
2023/09/29 02:44:59;;;;;;;20.57;14.93;;;16.40;99.90;;;;;;5225259;28;20428;-50
2023/09/29 02:47:30;;;;;;;20.70;15.37;;;16.40;99.90;;;;;;5228352;28;20677;-49
2023/09/29 02:50:01;;;;;;;19.60;15.37;;;16.40;99.90;;;;;;5230607;28;20203;-51
2023/09/29 02:52:32;;;;;;;18.97;14.90;;;16.40;99.90;;;;;;5227946;28;20194;-51
2023/09/29 02:55:04;;;;;;;17.27;14.20;;;16.40;99.90;;;;;;5243664;28;20673;-51
2023/09/29 02:57:35;;;;;;;17.50;14.57;;;16.40;99.90;;;;;;5226655;28;20509;-50
2023/09/29 03:00:12;;;;;;;33.63;15.20;;;16.30;99.90;;;;;;5229763;28;21015;-51
2023/09/29 03:02:43;;;;;;;24.07;16.00;;;16.30;99.90;;;;;;5225075;28;20548;-50
2023/09/29 03:05:15;;;;;;;19.10;14.67;;;16.30;99.90;;;;;;5200430;28;20426;-50
2023/09/29 03:07:46;;;;;;;25.33;14.93;;;16.30;99.90;;;;;;5225379;28;20297;-50
2023/09/29 03:10:17;;;;;;;20.40;15.40;;;16.20;99.90;;;;;;5226007;28;20547;-51
2023/09/29 03:12:48;;;;;;;19.57;15.17;;;16.20;99.90;;;;;;5221956;28;20557;-50
2023/09/29 03:15:21;;;;;;;21.53;15.10;;;16.20;99.90;;;;;;5220413;28;20434;-50
2023/09/29 03:17:55;;;;;;;16.90;13.93;;;16.20;99.90;;;;;;5231389;28;20210;-50
2023/09/29 03:20:26;;;;;;;19.37;14.37;;;16.20;99.90;;;;;;5227423;28;20451;-51
2023/09/29 03:23:04;;;;;;;21.03;14.63;;;16.10;99.90;;;;;;5218047;28;20437;-50
2023/09/29 03:25:34;;;;;;;26.23;14.33;;;16.20;99.90;;;;;;5219440;28;20183;-51
2023/09/29 03:28:05;;;;;;;16.50;13.70;;;16.10;99.90;;;;;;5222388;28;20923;-51
2023/09/29 03:30:36;;;;;;;17.30;13.20;;;16.10;99.90;;;;;;5227546;28;20215;-51
2023/09/29 03:33:06;;;;;;;17.43;12.97;;;16.10;99.90;;;;;;5223132;28;20183;-50
2023/09/29 03:35:37;;;;;;;27.57;15.03;;;16.00;99.90;;;;;;5220593;28;20183;-50
2023/09/29 03:38:08;;;;;;;24.20;15.73;;;16.00;99.90;;;;;;5221573;28;20205;-50
2023/09/29 03:40:38;;;;;;;17.40;14.87;;;16.00;99.90;;;;;;5219297;28;20191;-50
2023/09/29 03:43:09;;;;;;;23.00;14.10;;;16.00;99.90;;;;;;5226749;28;20187;-50
2023/09/29 03:45:42;;;;;;;17.27;14.43;;;16.00;99.90;;;;;;5226771;28;20180;-50
2023/09/29 03:48:15;;;;;;;18.73;15.30;;;15.90;99.90;;;;;;5224226;28;20281;-50
2023/09/29 03:50:49;;;;;;;20.90;14.53;;;15.90;99.90;;;;;;5217157;28;20950;-50
2023/09/29 03:53:21;;;;;;;18.27;13.60;;;16.00;99.90;;;;;;5220566;28;20934;-50
2023/09/29 03:55:52;;;;;;;23.00;13.40;;;16.00;99.90;;;;;;5222631;28;20495;-50
2023/09/29 03:58:24;;;;;;;21.20;14.00;;;16.00;99.90;;;;;;5227050;28;20992;-49
2023/09/29 04:00:54;;;;;;;15.73;13.37;;;16.00;99.90;;;;;;5226329;28;20536;-50
2023/09/29 04:03:25;;;;;;;21.30;14.80;;;16.10;99.90;;;;;;5224364;28;20536;-50
2023/09/29 04:05:56;;;;;;;17.03;12.80;;;16.00;99.90;;;;;;5217144;28;20180;-50
2023/09/29 04:08:26;;;;;;;23.97;16.00;;;16.00;99.90;;;;;;5225837;28;20211;-50
2023/09/29 04:10:57;;;;;;;18.60;12.53;;;16.00;99.90;;;;;;5221309;28;20245;-50
2023/09/29 04:13:28;;;;;;;20.60;14.53;;;15.90;99.90;;;;;;5226196;28;20190;-50
2023/09/29 04:16:03;;;;;;;17.60;13.00;;;15.90;99.90;;;;;;5226758;28;20726;-51
2023/09/29 04:18:34;;;;;;;20.30;12.87;;;15.90;99.90;;;;;;5223915;28;20290;-50
2023/09/29 04:21:11;;;;;;;21.53;14.30;;;16.00;99.90;;;;;;5218399;28;20624;-51
2023/09/29 04:23:42;;;;;;;19.20;14.43;;;15.90;99.90;;;;;;5224562;28;20441;-51
2023/09/29 04:26:18;;;;;;;17.90;14.30;;;15.80;99.90;;;;;;5208046;28;20943;-51
2023/09/29 04:28:52;;;;;;;22.03;14.43;;;15.80;99.90;;;;;;5225934;28;20449;-51
2023/09/29 04:31:23;;;;;;;20.77;15.30;;;15.80;99.90;;;;;;5224068;28;20845;-51
2023/09/29 04:33:54;;;;;;;16.37;13.03;;;15.80;99.90;;;;;;5226579;28;20441;-51
2023/09/29 04:36:24;;;;;;;19.77;13.00;;;15.80;99.90;;;;;;5226794;28;20185;-50
2023/09/29 04:38:55;;;;;;;17.60;13.73;;;15.70;99.90;;;;;;5222167;28;20683;-50
2023/09/29 04:41:25;;;;;;;18.80;14.00;;;15.80;99.90;;;;;;5221622;28;20191;-51
2023/09/29 04:43:56;;;;;;;17.67;12.63;;;15.70;99.90;;;;;;5213956;28;20210;-51
2023/09/29 04:46:27;;;;;;;17.10;13.13;;;15.70;99.90;;;;;;5219798;28;20187;-50
2023/09/29 04:48:58;;;;;;;16.63;13.40;;;15.70;99.90;;;;;;5218662;28;20203;-50
2023/09/29 04:51:30;;;;;;;14.10;12.03;;;15.70;99.90;;;;;;5221424;28;20179;-49
2023/09/29 04:54:01;;;;;;;19.00;13.40;;;15.70;99.90;;;;;;5224589;28;20433;-55
2023/09/29 04:56:32;;;;;;;20.30;13.50;;;15.70;99.90;;;;;;5239900;28;20445;-48
2023/09/29 04:59:03;;;;;;;19.63;12.50;;;15.70;99.90;;;;;;5233077;22;21026;-51
2023/09/29 05:01:35;;;;;;;16.23;12.03;;;15.80;99.90;;;;;;5224692;28;20185;-50
2023/09/29 05:04:06;;;;;;;21.10;13.27;;;15.80;99.90;;;;;;5218663;28;20195;-50
2023/09/29 05:06:36;;;;;;;17.50;12.43;;;15.80;99.90;;;;;;5224298;28;20472;-49
2023/09/29 05:09:09;;;;;;;14.97;11.60;;;15.80;99.90;;;;;;5218104;28;20211;-50
2023/09/29 05:11:40;;;;;;;20.57;13.17;;;15.80;99.90;;;;;;5204401;28;20675;-51
2023/09/29 05:14:11;;;;;;;16.90;11.80;;;15.80;99.90;;;;;;5189164;28;20530;-51
2023/09/29 05:16:41;;;;;;;16.93;12.03;;;15.90;99.90;;;;;;5213776;28;20175;-49
2023/09/29 05:19:12;;;;;;;15.53;12.43;;;15.90;99.90;;;;;;5203431;28;20270;-49
2023/09/29 05:21:43;;;;;;;19.67;12.43;;;15.90;99.90;;;;;;5198668;28;20652;-50
2023/09/29 05:24:14;;;;;;;13.97;12.07;;;15.90;99.90;;;;;;5193658;28;20195;-49
2023/09/29 05:26:45;;;;;;;15.03;11.80;;;16.00;99.90;;;;;;5196834;28;20443;-48
2023/09/29 05:29:15;;;;;;;13.53;11.23;;;16.10;99.90;;;;;;5201506;28;20278;-49
2023/09/29 05:31:46;;;;;;;14.40;11.70;;;16.40;99.90;;;;;;5205950;28;20180;-51
2023/09/29 05:34:17;;;;;;;19.17;11.50;;;16.60;99.90;;;;;;5201692;28;20179;-49
2023/09/29 05:36:48;;;;;;;21.03;10.60;;;16.50;99.90;;;;;;5208037;28;20249;-49
2023/09/29 05:39:19;;;;;;;27.20;12.47;;;16.70;99.90;;;;;;5206689;28;20203;-51
2023/09/29 05:41:50;;;;;;;16.50;11.37;;;16.80;99.90;;;;;;5204052;28;20179;-49
2023/09/29 05:44:21;;;;;;;16.27;10.10;;;16.70;99.90;;;;;;5206144;28;20184;-50
2023/09/29 05:46:51;;;;;;;14.20;11.40;;;16.80;99.90;;;;;;5202982;28;20538;-49
2023/09/29 05:49:22;;;;;;;14.80;12.00;;;16.90;99.90;;;;;;5204123;28;20330;-51
2023/09/29 05:51:53;;;;;;;20.70;10.87;;;17.00;99.90;;;;;;5194332;28;20191;-48
2023/09/29 05:54:23;;;;;;;15.70;10.67;;;17.10;99.90;;;;;;5209924;28;20270;-49
2023/09/29 05:56:54;;;;;;;11.57;10.37;;;17.50;99.90;;;;;;5201670;28;20185;-50
2023/09/29 05:59:25;;;;;;;14.53;10.40;;;17.70;99.90;;;;;;5206039;28;20223;-48
2023/09/29 06:01:57;;;;;;;15.00;9.83;;;18.00;99.90;;;;;;5202816;28;20450;-51
2023/09/29 06:04:28;;;;;;;15.30;10.77;;;18.30;99.90;;;;;;5206038;28;20189;-50
2023/09/29 06:06:59;;;;;;;14.70;9.97;;;18.50;99.90;;;;;;5213251;28;20449;-48
2023/09/29 06:09:30;;;;;;;10.53;9.37;;;18.80;99.90;;;;;;5201215;28;20303;-50
2023/09/29 06:12:01;;;;;;;13.77;9.87;;;19.10;99.90;;;;;;5202768;28;20176;-49
2023/09/29 06:14:32;;;;;;;16.73;10.10;;;19.50;99.90;;;;;;5198614;28;20438;-51
2023/09/29 06:17:03;;;;;;;17.13;9.10;;;20.30;99.90;;;;;;5199670;28;20181;-49
2023/09/29 06:19:34;;;;;;;14.57;8.87;;;21.80;99.90;;;;;;5199532;28;20463;-49
2023/09/29 06:22:05;;;;;;;11.43;8.37;;;23.50;99.90;;;;;;5201566;28;20939;-50
2023/09/29 06:24:36;;;;;;;19.60;9.27;;;24.30;97.10;;;;;;5201721;28;20316;-49
2023/09/29 06:27:06;;;;;;;11.47;9.27;;;23.80;95.60;;;;;;5197951;28;20534;-50
2023/09/29 06:29:39;;;;;;;23.33;9.43;;;24.10;94.80;;;;;;5201889;28;20218;-50
2023/09/29 06:32:09;;;;;;;40.97;11.23;;;24.50;92.80;;;;;;5203767;28;20188;-50
2023/09/29 06:34:40;;;;;;;20.07;8.90;;;25.10;91.50;;;;;;5218286;28;20438;-52
2023/09/29 06:37:11;;;;;;;12.43;9.07;;;25.70;88.50;;;;;;5205189;28;20187;-49
2023/09/29 06:39:41;;;;;;;13.60;8.00;;;25.40;83.80;;;;;;5206579;28;20307;-50
2023/09/29 06:42:12;;;;;;;11.57;7.87;;;25.10;84.70;;;;;;5208153;28;20252;-50
2023/09/29 06:44:43;;;;;;;12.03;8.20;;;24.50;85.70;;;;;;5190595;28;20191;-49
2023/09/29 06:47:13;;;;;;;9.33;8.40;;;23.90;86.80;;;;;;5200372;28;20196;-51
2023/09/29 06:49:44;;;;;;;8.13;7.47;;;23.60;88.30;;;;;;5202373;28;20974;-51
2023/09/29 06:52:15;;;;;;;14.47;9.73;;;23.80;89.40;;;;;;5191505;28;20712;-49
2023/09/29 06:54:45;;;;;;;10.23;8.80;;;24.20;87.80;;;;;;5206178;28;20714;-51
2023/09/29 06:57:16;;;;;;;11.53;9.00;;;24.80;86.20;;;;;;5200577;28;20219;-50
2023/09/29 06:59:48;;;;;;;14.50;8.57;;;25.90;82.20;;;;;;5201832;28;20877;-51
2023/09/29 07:02:19;;;;;;;14.57;8.50;;;27.20;76.50;;;;;;5194511;28;20922;-50
2023/09/29 07:04:51;;;;;;;12.50;7.60;;;28.00;71.40;;;;;;5199025;28;20751;-49
2023/09/29 07:07:21;;;;;;;9.87;8.10;;;28.60;67.00;;;;;;5214149;28;20442;-50
2023/09/29 07:09:52;;;;;;;15.20;7.43;;;28.70;64.50;;;;;;5204470;28;20466;-49
2023/09/29 07:12:23;;;;;;;10.10;7.63;;;29.30;60.80;;;;;;5194208;28;20202;-51
2023/09/29 07:14:54;;;;;;;10.37;8.13;;;29.80;58.50;;;;;;5199206;28;20210;-49
2023/09/29 07:17:24;;;;;;;8.80;7.83;;;29.70;57.70;;;;;;5200544;28;20242;-51
2023/09/29 07:19:55;;;;;;;9.93;7.00;;;29.70;57.00;;;;;;5201285;28;20242;-51
2023/09/29 07:22:26;;;;;;;10.10;7.30;;;29.20;57.00;;;;;;5197127;28;20219;-50
2023/09/29 07:24:57;;;;;;;13.00;6.57;;;28.20;58.50;;;;;;5199648;28;20484;-49
2023/09/29 07:27:29;;;;;;;30.07;7.50;;;27.60;60.80;;;;;;5196132;28;20187;-52
2023/09/29 07:30:00;;;;;;;10.23;7.03;;;27.30;60.00;;;;;;5199532;28;20475;-50
2023/09/29 07:32:31;;;;;;;10.23;6.37;;;27.40;60.80;;;;;;5199683;28;20434;-52
2023/09/29 07:35:03;;;;;;;12.80;6.63;;;27.40;60.50;;;;;;5199711;28;20168;-49
2023/09/29 07:37:34;;;;;;;25.53;9.17;;;27.70;60.30;;;;;;5199684;28;20199;-51
2023/09/29 07:40:07;;;;;;;20.97;8.30;;;27.80;60.10;;;;;;5192984;28;20985;-50
2023/09/29 07:42:38;;;;;;;34.37;11.47;;;27.80;60.10;;;;;;5192466;28;20474;-50
2023/09/29 07:45:09;;;;;;;25.03;8.80;;;27.70;60.00;;;;;;5198977;28;20470;-52
2023/09/29 07:47:41;;;;;;;6.13;5.43;;;27.60;61.10;;;;;;5196337;28;20271;-49
2023/09/29 07:50:12;;;;;;;7.17;6.17;;;27.60;60.80;;;;;;5196783;28;20589;-53
2023/09/29 07:52:43;;;;;;;7.93;5.43;;;27.60;61.20;;;;;;5191943;28;21787;-51
2023/09/29 07:55:14;;;;;;;10.13;6.00;;;27.20;61.60;;;;;;5199694;28;20477;-50
2023/09/29 07:57:44;;;;;;;6.93;6.23;;;26.40;62.70;;;;;;5197008;28;20187;-52
2023/09/29 08:00:16;;;;;;;6.77;5.83;;;26.00;64.60;;;;;;5189666;28;20293;-50
2023/09/29 08:02:47;;;;;;;5.90;5.20;;;25.90;65.20;;;;;;5200667;28;20195;-51
2023/09/29 08:05:17;;;;;;;16.60;6.57;;;25.60;66.10;;;;;;5199210;28;20435;-52
2023/09/29 08:07:48;;;;;;;7.17;6.30;;;25.60;66.30;;;;;;5197960;28;20188;-51
2023/09/29 08:10:19;;;;;;;7.83;5.90;;;25.60;67.40;;;;;;5192790;28;20230;-52
2023/09/29 08:12:51;;;;;;;6.70;6.10;;;25.60;67.50;;;;;;5196942;28;20199;-50
2023/09/29 08:15:24;;;;;;;7.17;5.20;;;25.60;66.50;;;;;;5194539;28;21014;-49
2023/09/29 08:17:55;;;;;;;7.80;5.13;;;25.50;67.30;;;;;;5195939;28;20453;-50
2023/09/29 08:20:25;;;;;;;8.83;5.87;;;25.20;67.90;;;;;;5196607;28;20461;-50
2023/09/29 08:22:56;;;;;;;12.50;5.53;;;25.00;68.90;;;;;;5195030;28;20190;-50
2023/09/29 08:25:27;;;;;;;5.97;4.60;;;24.70;69.50;;;;;;5198186;28;20220;-51
2023/09/29 08:28:02;;;;;;;9.20;5.97;;;24.50;70.70;;;;;;5198849;28;20242;-50
2023/09/29 08:30:32;;;;;;;8.60;5.57;;;24.30;71.60;;;;;;5195922;28;20476;-49
2023/09/29 08:33:03;;;;;;;11.50;5.43;;;24.20;72.30;;;;;;5196795;28;20443;-49
2023/09/29 08:35:34;;;;;;;9.90;5.30;;;24.00;72.70;;;;;;5205499;28;20183;-50
2023/09/29 08:38:05;;;;;;;5.50;5.00;;;23.90;74.10;;;;;;5181544;28;20473;-49
2023/09/29 08:40:40;;;;;;;6.13;4.63;;;23.80;75.00;;;;;;5191526;28;20204;-51
2023/09/29 08:43:13;;;;;;;8.53;5.70;;;23.80;75.50;;;;;;5198185;28;20270;-49
2023/09/29 08:45:48;;;;;;;10.23;6.33;;;23.70;76.10;;;;;;5192111;28;20471;-50
2023/09/29 08:48:19;;;;;;;12.17;5.50;;;23.70;76.40;;;;;;5198837;28;20443;-48
2023/09/29 08:50:55;;;;;;;11.20;6.17;;;23.60;77.20;;;;;;5195333;28;20470;-50
2023/09/29 08:53:28;;;;;;;6.33;5.47;;;23.70;77.90;;;;;;5191047;28;20183;-50
2023/09/29 08:56:04;;;;;;;8.87;5.60;;;23.80;77.40;;;;;;5199382;28;20468;-50
2023/09/29 08:58:35;;;;;;;6.57;4.60;;;23.90;77.40;;;;;;5194318;28;20476;-51
2023/09/29 09:01:05;;;;;;;6.30;5.50;;;23.70;78.00;;;;;;5208734;28;21296;-50
2023/09/29 09:03:36;;;;;;;7.00;5.00;;;23.80;79.00;;;;;;5195441;28;20184;-49
2023/09/29 09:06:24;;;;;;;4.67;4.40;;;23.80;79.00;;;;;;5192812;28;20682;-50
2023/09/29 09:08:56;;;;;;;5.53;4.87;;;23.80;79.50;;;;;;5194189;28;20234;-49
2023/09/29 09:11:28;;;;;;;12.53;5.87;;;23.90;79.30;;;;;;5198695;28;20450;-51
2023/09/29 09:14:00;;;;;;;12.37;6.27;;;24.00;79.30;;;;;;5191836;28;20433;-51
2023/09/29 09:16:36;;;;;;;6.57;5.17;;;23.90;78.60;;;;;;5196186;28;20434;-51
2023/09/29 09:19:16;;;;;;;12.63;4.93;;;23.90;79.60;;;;;;5181218;28;20933;-48
2023/09/29 09:21:47;;;;;;;6.23;4.90;;;23.70;80.20;;;;;;5196029;28;20982;-49
2023/09/29 09:24:23;;;;;;;5.93;4.47;;;23.60;80.90;;;;;;5193477;28;20438;-53
2023/09/29 09:27:01;;;;;;;4.87;4.47;;;23.60;81.60;;;;;;5193526;28;20262;-49
2023/09/29 09:29:39;;;;;;;11.90;5.00;;;23.60;82.40;;;;;;5192251;28;20494;-48
2023/09/29 09:32:10;;;;;;;4.63;4.20;;;23.50;82.40;;;;;;5191488;28;20477;-49
2023/09/29 09:34:42;;;;;;;4.67;3.93;;;23.50;83.00;;;;;;5194632;28;20935;-51
2023/09/29 09:37:13;;;;;;;10.90;5.60;;;23.40;83.40;;;;;;5211451;28;20751;-48
2023/09/29 09:39:44;;;;;;;9.53;4.30;;;23.40;83.60;;;;;;5188411;28;20541;-49
2023/09/29 09:42:16;;;;;;;9.47;4.97;;;23.30;84.10;;;;;;5180323;28;20430;-49
2023/09/29 09:44:47;;;;;;;10.80;4.27;;;23.20;84.60;;;;;;5195486;28;20739;-51
2023/09/29 09:47:18;;;;;;;6.30;4.70;;;23.20;85.30;;;;;;5198110;28;20431;-51
2023/09/29 09:49:53;;;;;;;5.30;4.87;;;23.20;85.40;;;;;;5185500;28;20279;-49
2023/09/29 09:52:29;;;;;;;7.37;5.43;;;23.20;86.10;;;;;;5202309;28;20431;-52
2023/09/29 09:55:19;;;;;;;8.77;5.47;;;23.20;86.40;;;;;;5206466;28;20480;-51
2023/09/29 09:57:50;;;;;;;3.83;3.53;;;23.30;86.70;;;;;;5196539;28;20427;-51
2023/09/29 10:00:24;;;;;;;5.27;4.50;;;23.40;86.70;;;;;;5196995;28;20477;-51
2023/09/29 10:02:57;;;;;;;5.40;4.90;;;23.50;86.60;;;;;;5204594;28;20438;-52
2023/09/29 10:05:31;;;;;;;7.73;5.17;;;23.60;86.70;;;;;;5200955;28;20431;-49
2023/09/29 10:08:02;;;;;;;4.53;3.60;;;23.90;86.70;;;;;;5200143;28;20438;-53
2023/09/29 10:10:40;;;;;;;10.13;4.73;;;24.00;86.10;;;;;;5199840;28;20469;-49
2023/09/29 10:13:11;;;;;;;4.60;4.20;;;24.20;85.10;;;;;;5194826;28;20430;-50
2023/09/29 10:15:42;;;;;;;5.30;4.53;;;24.30;85.10;;;;;;5198579;28;20434;-50
2023/09/29 10:18:20;;;;;;;8.50;5.00;;;24.30;85.00;;;;;;5203359;28;20430;-50
2023/09/29 10:20:55;;;;;;;6.30;5.30;;;24.40;84.80;;;;;;5200374;28;20191;-50
2023/09/29 10:23:25;;;;;;;5.70;5.13;;;24.60;84.60;;;;;;5205272;28;20438;-50
2023/09/29 10:26:02;;;;;;;7.97;4.47;;;24.70;84.10;;;;;;5205308;28;20430;-50
2023/09/29 10:28:39;;;;;;;10.03;4.47;;;24.70;83.70;;;;;;5198735;28;20688;-51
2023/09/29 10:31:14;;;;;;;4.40;4.00;;;24.60;83.80;;;;;;5201047;28;20458;-49
2023/09/29 10:33:52;;;;;;;5.37;4.80;;;24.60;83.60;;;;;;5199374;28;20449;-48
2023/09/29 10:36:24;;;;;;;5.17;4.33;;;24.50;84.40;;;;;;5204511;28;20473;-49
2023/09/29 10:38:57;;;;;;;7.23;4.93;;;24.50;84.60;;;;;;5198969;28;20827;-48
2023/09/29 10:41:32;;;;;;;13.93;4.60;;;24.50;85.00;;;;;;5197383;28;20807;-53
2023/09/29 10:44:04;;;;;;;5.77;4.10;;;24.50;84.70;;;;;;5200836;28;20469;-49
2023/09/29 10:46:36;;;;;;;7.37;4.97;;;24.70;84.30;;;;;;5205891;28;20509;-51
2023/09/29 10:49:07;;;;;;;7.03;4.90;;;24.80;84.00;;;;;;5204858;28;20454;-51
2023/09/29 10:51:38;;;;;;;5.07;4.10;;;24.90;84.10;;;;;;5203671;28;20438;-51
2023/09/29 10:54:08;;;;;;;3.63;3.43;;;25.00;84.70;;;;;;5197439;28;20639;-49
2023/09/29 10:56:39;;;;;;;5.43;4.37;;;25.20;84.00;;;;;;5200059;28;20196;-49
2023/09/29 10:59:10;;;;;;;4.90;4.40;;;25.50;83.30;;;;;;5200711;28;20203;-50
2023/09/29 11:01:44;;;;;;;6.03;4.40;;;25.60;82.40;;;;;;5195414;28;20609;-50
2023/09/29 11:04:15;;;;;;;7.70;5.03;;;25.80;81.70;;;;;;5215106;28;20425;-49
2023/09/29 11:06:46;;;;;;;7.30;4.70;;;25.90;81.30;;;;;;5202712;28;20438;-50
2023/09/29 11:09:20;;;;;;;4.27;3.97;;;26.00;80.90;;;;;;5205547;28;20556;-50
2023/09/29 11:11:51;;;;;;;7.20;3.83;;;25.90;80.60;;;;;;5219244;28;20513;-50
2023/09/29 11:14:22;;;;;;;8.23;4.43;;;25.80;80.50;;;;;;5205872;28;20434;-49
2023/09/29 11:16:57;;;;;;;7.90;4.87;;;25.70;81.00;;;;;;5209943;28;20422;-50
2023/09/29 11:19:30;;;;;;;5.53;4.03;;;25.50;81.20;;;;;;5201630;28;20199;-48
2023/09/29 11:22:03;;;;;;;3.90;3.60;;;25.40;81.40;;;;;;5192301;28;20497;-49
2023/09/29 11:24:41;;;;;;;6.77;4.40;;;25.20;81.90;;;;;;5192465;28;20842;-49
2023/09/29 11:27:12;;;;;;;5.03;4.50;;;25.20;81.90;;;;;;5189648;28;21142;-48
2023/09/29 11:29:44;;;;;;;4.23;3.93;;;25.00;82.70;;;;;;5197464;28;20502;-50
2023/09/29 11:32:18;;;;;;;7.83;4.20;;;24.90;83.40;;;;;;5194087;28;22057;-51
2023/09/29 11:34:48;;;;;;;7.70;5.23;;;24.90;84.30;;;;;;5198388;28;20521;-48
2023/09/29 11:37:20;;;;;;;3.87;3.57;;;24.90;83.90;;;;;;5199173;28;20549;-51
2023/09/29 11:39:50;;;;;;;4.40;3.87;;;24.90;84.20;;;;;;5199543;28;20282;-49
2023/09/29 11:42:23;;;;;;;7.33;4.10;;;24.90;84.50;;;;;;5210513;28;20525;-50
2023/09/29 11:44:53;;;;;;;5.33;3.73;;;24.90;84.30;;;;;;5195038;28;20188;-55
2023/09/29 11:47:24;;;;;;;5.63;4.37;;;24.80;83.90;;;;;;5198422;28;20465;-50
2023/09/29 11:49:56;;;;;;;3.50;3.30;;;24.80;84.40;;;;;;5183118;28;20726;-52
2023/09/29 11:52:27;;;;;;;4.43;4.13;;;24.60;84.90;;;;;;5196387;28;20186;-50
2023/09/29 11:54:58;;;;;;;5.10;4.30;;;24.60;85.50;;;;;;5193583;28;20432;-49
2023/09/29 11:57:29;;;;;;;6.90;5.70;;;24.50;85.60;;;;;;5198059;28;20187;-47
2023/09/29 11:59:59;;;;;;;9.00;6.13;;;24.60;86.10;;;;;;5214137;28;20466;-51
2023/09/29 12:02:30;;;;;;;8.23;5.97;;;24.70;85.80;;;;;;5200125;28;20551;-49
2023/09/29 12:05:02;;;;;;;13.60;6.57;;;24.90;85.80;;;;;;5201093;28;20188;-49
2023/09/29 12:07:35;;;;;;;8.23;4.77;;;24.90;86.70;;;;;;5198746;28;20703;-50
2023/09/29 12:10:07;;;;;;;8.90;4.80;;;24.90;85.70;;;;;;5196458;28;20458;-50
2023/09/29 12:12:37;;;;;;;9.17;5.10;;;25.00;85.60;;;;;;5194503;28;20438;-50
2023/09/29 12:15:08;;;;;;;7.43;4.90;;;25.10;85.50;;;;;;5191364;28;20440;-47
2023/09/29 12:17:39;;;;;;;6.57;5.10;;;25.40;85.10;;;;;;5203349;28;20175;-52
2023/09/29 12:20:13;;;;;;;6.20;4.53;;;25.20;84.90;;;;;;5198480;28;20455;-49
2023/09/29 12:22:46;;;;;;;9.50;4.77;;;25.20;84.90;;;;;;5199466;28;20183;-51
2023/09/29 12:25:16;;;;;;;4.37;4.03;;;25.00;85.00;;;;;;5197796;28;20450;-49
2023/09/29 12:27:48;;;;;;;12.10;4.03;;;24.90;85.20;;;;;;5196739;28;20443;-51
2023/09/29 12:30:21;;;;;;;3.80;3.60;;;25.00;84.90;;;;;;5183572;28;20695;-52
2023/09/29 12:32:52;;;;;;;10.80;5.23;;;25.10;84.70;;;;;;5196196;28;20462;-52
2023/09/29 12:35:22;;;;;;;5.20;4.50;;;24.90;84.70;;;;;;5198787;28;20855;-50
2023/09/29 12:37:53;;;;;;;4.97;4.50;;;25.00;84.80;;;;;;5194763;28;20185;-48
2023/09/29 12:40:24;;;;;;;9.90;4.13;;;24.80;84.40;;;;;;5195467;28;20226;-49
2023/09/29 12:42:56;;;;;;;5.37;3.80;;;24.60;85.00;;;;;;5190804;28;20183;-52
2023/09/29 12:45:27;;;;;;;4.73;4.30;;;24.40;85.50;;;;;;5210494;28;20196;-48
2023/09/29 12:47:59;;;;;;;7.93;4.20;;;24.30;86.20;;;;;;5213423;28;20439;-51
2023/09/29 12:50:33;;;;;;;6.50;3.93;;;24.20;87.00;;;;;;5197564;28;20208;-48
2023/09/29 12:53:04;;;;;;;7.40;4.47;;;24.10;87.70;;;;;;5195209;28;20536;-50
2023/09/29 12:55:38;;;;;;;4.83;4.17;;;24.10;88.70;;;;;;5193074;28;20997;-49
2023/09/29 12:58:11;;;;;;;5.73;5.00;;;24.00;89.20;;;;;;5200113;28;20183;-51